createdAt,value
2018-05-09T00:00:46.688Z,5.10
2018-05-09T00:03:49.893Z,5.13
2018-05-09T00:06:53.191Z,5.10
2018-05-09T00:09:56.392Z,5.57
2018-05-09T00:12:59.703Z,4.83
2018-05-09T00:16:02.892Z,4.50
2018-05-09T00:19:06.176Z,4.53
2018-05-09T00:22:09.448Z,4.53
2018-05-09T00:25:12.665Z,4.70
2018-05-09T00:28:15.932Z,4.83
2018-05-09T00:31:19.172Z,5.00
2018-05-09T00:34:22.427Z,4.60
2018-05-09T00:37:25.685Z,4.70
2018-05-09T00:40:28.890Z,4.60
2018-05-09T00:43:32.157Z,4.80
2018-05-09T00:46:35.396Z,4.43
2018-05-09T00:49:38.666Z,4.53
2018-05-09T00:52:41.875Z,4.63
2018-05-09T00:55:45.151Z,5.47
2018-05-09T00:58:48.408Z,4.90
2018-05-09T01:01:51.610Z,5.13
2018-05-09T01:04:54.882Z,4.90
2018-05-09T01:07:58.092Z,5.53
2018-05-09T01:11:01.394Z,5.10
2018-05-09T01:14:04.670Z,4.40
2018-05-09T01:17:07.867Z,4.80
2018-05-09T01:20:11.149Z,4.07
2018-05-09T01:23:14.679Z,4.27
2018-05-09T01:26:18.029Z,5.10
2018-05-09T01:29:21.209Z,5.33
2018-05-09T01:32:24.524Z,4.93
2018-05-09T01:35:27.778Z,4.93
2018-05-09T01:38:30.974Z,5.63
2018-05-09T01:41:34.258Z,4.70
2018-05-09T01:44:37.451Z,4.60
2018-05-09T01:47:40.709Z,5.17
2018-05-09T01:50:43.990Z,4.47
2018-05-09T01:53:47.182Z,5.77
2018-05-09T01:56:50.445Z,6.13
2018-05-09T01:59:53.667Z,4.50
2018-05-09T02:02:56.930Z,4.80
2018-05-09T02:06:00.238Z,5.00
2018-05-09T02:09:03.486Z,4.70
2018-05-09T02:12:06.749Z,5.03
2018-05-09T02:15:09.950Z,5.23
2018-05-09T02:18:13.208Z,5.57
2018-05-09T02:21:16.417Z,5.03
2018-05-09T02:24:19.698Z,5.50
2018-05-09T02:27:22.905Z,7.47
2018-05-09T02:30:26.170Z,5.30
2018-05-09T02:33:29.438Z,4.83
2018-05-09T02:36:32.640Z,4.77
2018-05-09T02:39:35.942Z,5.67
2018-05-09T02:42:39.183Z,5.57
2018-05-09T02:45:42.450Z,6.80
2018-05-09T02:48:45.735Z,6.30
2018-05-09T02:51:48.931Z,5.50
2018-05-09T02:54:52.195Z,5.07
2018-05-09T02:57:55.518Z,5.33
2018-05-09T03:00:58.785Z,5.20
2018-05-09T03:04:01.995Z,5.10
2018-05-09T03:07:05.253Z,5.50
2018-05-09T03:10:08.507Z,6.83
2018-05-09T03:13:11.698Z,5.40
2018-05-09T03:16:14.952Z,5.80
2018-05-09T03:19:18.139Z,5.40
2018-05-09T03:22:21.397Z,5.60
2018-05-09T03:25:24.651Z,5.70
2018-05-09T03:28:27.839Z,5.40
2018-05-09T03:31:31.114Z,5.63
2018-05-09T03:34:34.315Z,5.67
2018-05-09T03:37:37.583Z,5.37
2018-05-09T03:40:40.863Z,5.70
2018-05-09T03:43:45.808Z,5.77
2018-05-09T03:46:49.072Z,5.17
2018-05-09T03:49:52.290Z,5.63
2018-05-09T03:52:55.544Z,5.80
2018-05-09T03:55:58.736Z,6.33
2018-05-09T03:59:02.017Z,5.60
2018-05-09T04:02:17.005Z,6.17
2018-05-09T04:05:31.800Z,5.40
2018-05-09T04:12:10.947Z,5.40
2018-05-09T04:15:14.528Z,5.73
2018-05-09T04:18:17.790Z,7.33
2018-05-09T04:21:20.978Z,6.97
2018-05-09T04:24:24.223Z,6.43
2018-05-09T04:27:27.411Z,5.30
2018-05-09T04:30:30.691Z,4.93
2018-05-09T04:33:33.954Z,5.40
2018-05-09T04:36:37.164Z,5.77
2018-05-09T04:39:40.462Z,6.03
2018-05-09T04:42:43.654Z,6.33
2018-05-09T04:45:46.934Z,5.40
2018-05-09T04:48:50.209Z,6.10
2018-05-09T04:51:53.410Z,6.10
2018-05-09T04:54:56.685Z,5.70
2018-05-09T04:57:59.892Z,6.23
2018-05-09T05:01:03.185Z,6.33
2018-05-09T05:04:06.394Z,6.53
2018-05-09T05:07:09.710Z,6.93
2018-05-09T05:10:12.994Z,6.97
2018-05-09T05:13:16.195Z,6.97
2018-05-09T05:16:19.462Z,7.83
2018-05-09T05:19:22.663Z,6.70
2018-05-09T05:22:25.952Z,6.77
2018-05-09T05:25:29.206Z,6.83
2018-05-09T05:28:32.485Z,6.93
2018-05-09T05:31:35.762Z,7.40
2018-05-09T05:34:38.959Z,8.40
2018-05-09T05:37:42.231Z,9.53
2018-05-09T05:40:45.422Z,8.50
2018-05-09T05:43:48.681Z,8.83
2018-05-09T05:46:51.975Z,9.00
2018-05-09T05:49:55.176Z,8.30
2018-05-09T05:52:58.438Z,7.43
2018-05-09T05:56:01.658Z,8.70
2018-05-09T05:59:04.946Z,7.60
2018-05-09T06:02:08.147Z,8.40
2018-05-09T06:05:12.686Z,8.40
2018-05-09T06:08:16.638Z,8.13
2018-05-09T06:11:19.936Z,7.67
2018-05-09T06:14:23.191Z,9.13
2018-05-09T06:17:26.404Z,8.60
2018-05-09T06:20:29.689Z,8.27
2018-05-09T06:23:32.895Z,8.70
2018-05-09T06:26:36.153Z,8.83
2018-05-09T06:29:39.416Z,7.80
2018-05-09T06:32:42.612Z,7.80
2018-05-09T06:35:45.878Z,7.70
2018-05-09T06:38:49.080Z,8.13
2018-05-09T06:41:52.342Z,8.60
2018-05-09T06:44:55.591Z,8.20
2018-05-09T06:47:58.890Z,7.40
2018-05-09T06:51:02.170Z,7.43
2018-05-09T06:54:05.371Z,7.20
2018-05-09T06:57:08.647Z,7.80
2018-05-09T07:00:11.900Z,8.20
2018-05-09T07:03:15.212Z,8.10
2018-05-09T07:06:18.599Z,7.03
2018-05-09T07:09:21.763Z,7.60
2018-05-09T07:12:25.052Z,7.73
2018-05-09T07:15:28.258Z,7.83
2018-05-09T07:18:31.631Z,8.23
2018-05-09T07:21:34.831Z,6.60
2018-05-09T07:24:38.090Z,7.13
2018-05-09T07:27:41.344Z,6.97
2018-05-09T07:30:44.550Z,6.93
2018-05-09T07:33:47.812Z,6.90
2018-05-09T07:36:51.004Z,7.03
2018-05-09T07:39:54.273Z,7.23
2018-05-09T07:42:57.472Z,6.27
2018-05-09T07:46:00.740Z,6.10
2018-05-09T07:49:04.060Z,5.83
2018-05-09T07:52:07.260Z,5.80
2018-05-09T07:55:10.523Z,6.27
2018-05-09T07:58:13.716Z,5.07
2018-05-09T08:01:16.979Z,4.93
2018-05-09T08:04:20.258Z,5.50
2018-05-09T08:07:25.141Z,5.13
2018-05-09T08:10:28.422Z,5.20
2018-05-09T08:13:31.659Z,5.23
2018-05-09T08:16:34.942Z,4.70
2018-05-09T08:19:38.138Z,4.50
2018-05-09T08:22:41.412Z,4.33
2018-05-09T08:25:44.679Z,5.10
2018-05-09T08:28:47.875Z,4.97
2018-05-09T08:31:51.137Z,4.33
2018-05-09T08:34:54.344Z,4.40
2018-05-09T08:37:57.601Z,4.80
2018-05-09T08:41:00.798Z,4.90
2018-05-09T08:44:04.174Z,5.00
2018-05-09T08:47:07.372Z,5.00
2018-05-09T08:50:10.560Z,4.33
2018-05-09T08:53:13.832Z,4.30
2018-05-09T08:56:17.072Z,5.13
2018-05-09T08:59:20.334Z,5.03
2018-05-09T09:02:23.610Z,4.50
2018-05-09T09:05:26.807Z,4.57
2018-05-09T09:08:30.058Z,4.60
2018-05-09T09:11:33.266Z,4.43
2018-05-09T09:14:36.537Z,4.90
2018-05-09T09:17:39.835Z,5.03
2018-05-09T09:20:43.033Z,4.10
2018-05-09T09:23:46.299Z,4.87
2018-05-09T09:26:49.496Z,4.50
2018-05-09T09:29:52.762Z,4.10
2018-05-09T09:32:56.017Z,4.27
2018-05-09T09:35:59.287Z,4.50
2018-05-09T09:39:02.564Z,4.17
2018-05-09T09:42:05.818Z,4.20
2018-05-09T09:45:09.108Z,4.33
2018-05-09T09:48:12.299Z,3.77
2018-05-09T09:51:15.571Z,3.77
2018-05-09T09:54:18.853Z,3.50
2018-05-09T09:57:22.047Z,3.63
2018-05-09T10:00:26.705Z,3.97
2018-05-09T10:03:29.906Z,3.63
2018-05-09T10:06:33.182Z,3.20
2018-05-09T10:09:36.431Z,3.40
2018-05-09T10:12:39.624Z,3.70
2018-05-09T10:15:42.887Z,3.43
2018-05-09T10:18:46.084Z,4.00
2018-05-09T10:21:49.397Z,3.93
2018-05-09T10:24:52.648Z,3.27
2018-05-09T10:27:55.845Z,3.43
2018-05-09T10:30:59.116Z,3.33
2018-05-09T10:34:02.374Z,3.50
2018-05-09T10:37:05.632Z,3.33
2018-05-09T10:40:09.200Z,3.60
2018-05-09T10:43:12.388Z,3.40
2018-05-09T10:46:16.238Z,3.53
2018-05-09T10:49:19.443Z,3.60
2018-05-09T10:52:22.710Z,3.10
2018-05-09T10:55:25.915Z,3.28
2018-05-09T10:58:29.182Z,3.60
2018-05-09T11:01:32.450Z,3.45
2018-05-09T11:04:35.654Z,3.42
2018-05-09T11:07:38.905Z,3.65
2018-05-09T11:10:42.118Z,3.65
2018-05-09T11:13:45.395Z,3.53
2018-05-09T11:16:48.647Z,3.65
2018-05-09T11:19:51.848Z,3.22
2018-05-09T11:22:55.117Z,3.53
2018-05-09T11:25:58.333Z,3.15
2018-05-09T11:29:01.592Z,3.40
2018-05-09T11:32:04.798Z,3.40
2018-05-09T11:35:08.069Z,3.60
2018-05-09T11:38:11.332Z,3.42
2018-05-09T11:41:14.543Z,3.22
2018-05-09T11:44:18.164Z,3.67
2018-05-09T11:47:21.360Z,3.45
2018-05-09T11:50:24.639Z,3.50
2018-05-09T11:53:27.840Z,3.42
2018-05-09T11:56:31.098Z,3.40
2018-05-09T11:59:34.290Z,4.03
2018-05-09T12:02:37.681Z,3.53
2018-05-09T12:05:40.913Z,4.50
2018-05-09T12:08:44.126Z,3.90
2018-05-09T12:11:47.394Z,4.05
2018-05-09T12:14:50.600Z,4.03
2018-05-09T12:17:53.875Z,4.25
2018-05-09T12:20:57.094Z,4.10
2018-05-09T12:24:00.361Z,4.28
2018-05-09T12:27:03.637Z,4.28
2018-05-09T12:30:06.839Z,4.15
2018-05-09T12:33:10.119Z,4.28
2018-05-09T12:36:13.328Z,4.43
2018-05-09T12:39:16.617Z,4.22
2018-05-09T12:42:19.898Z,4.30
2018-05-09T12:45:23.098Z,4.40
2018-05-09T12:48:26.359Z,3.85
2018-05-09T12:51:29.606Z,4.05
2018-05-09T12:54:32.945Z,4.22
2018-05-09T12:57:36.241Z,4.50
2018-05-09T13:00:39.442Z,4.12
2018-05-09T13:03:42.723Z,3.90
2018-05-09T13:06:45.915Z,3.97
2018-05-09T13:09:49.181Z,4.37
2018-05-09T13:12:52.378Z,4.45
2018-05-09T13:15:55.654Z,4.25
2018-05-09T13:18:58.921Z,4.35
2018-05-09T13:22:02.126Z,4.25
2018-05-09T13:25:05.398Z,4.05
2018-05-09T13:28:08.667Z,4.12
2018-05-09T13:31:11.968Z,4.05
2018-05-09T13:34:20.455Z,4.12
2018-05-09T13:37:24.239Z,4.00
2018-05-09T13:40:38.892Z,4.00
2018-05-09T13:44:01.028Z,3.87
2018-05-09T13:50:31.297Z,3.95
2018-05-09T13:53:36.649Z,4.50
2018-05-09T13:56:39.978Z,7.28
2018-05-09T13:59:43.695Z,5.95
2018-05-09T14:06:06.303Z,5.00
2018-05-09T14:09:12.107Z,5.82
2018-05-09T14:12:20.485Z,4.90
2018-05-09T14:15:29.460Z,5.15
2018-05-09T14:18:33.836Z,5.60
2018-05-09T14:21:39.678Z,5.00
2018-05-09T14:24:42.901Z,5.25
2018-05-09T14:27:46.159Z,5.00
2018-05-09T14:30:49.718Z,4.78
2018-05-09T14:33:53.007Z,5.05
2018-05-09T14:36:56.279Z,4.78
2018-05-09T14:39:59.537Z,5.18
2018-05-09T14:43:02.737Z,4.72
2018-05-09T14:49:27.354Z,5.00
2018-05-09T14:52:30.559Z,4.80
2018-05-09T14:55:38.101Z,4.70
2018-05-09T14:58:52.009Z,4.70
2018-05-09T15:01:55.276Z,4.70
2018-05-09T15:04:58.571Z,4.53
2018-05-09T15:08:01.787Z,4.35
2018-05-09T15:11:05.059Z,4.43
2018-05-09T15:14:08.284Z,4.10
2018-05-09T15:17:11.620Z,4.40
2018-05-09T15:20:14.917Z,4.53
2018-05-09T15:23:18.127Z,4.20
2018-05-09T15:26:21.407Z,4.43
2018-05-09T15:29:24.608Z,4.90
2018-05-09T15:32:27.875Z,4.60
2018-05-09T15:35:31.067Z,4.40
2018-05-09T15:38:34.462Z,4.55
2018-05-09T15:41:37.765Z,5.10
2018-05-09T15:44:41.114Z,5.72
2018-05-09T15:47:44.356Z,5.03
2018-05-09T15:50:47.562Z,5.37
2018-05-09T15:53:50.854Z,5.35
2018-05-09T15:56:54.122Z,4.55
2018-05-09T15:59:57.341Z,4.43
2018-05-09T16:03:00.613Z,4.60
2018-05-09T16:06:03.818Z,4.50
2018-05-09T16:09:07.094Z,4.30
2018-05-09T16:12:10.299Z,4.35
2018-05-09T16:15:13.566Z,4.28
2018-05-09T16:18:16.834Z,4.35
2018-05-09T16:21:20.088Z,4.12
2018-05-09T16:24:23.346Z,4.10
2018-05-09T16:27:26.549Z,4.60
2018-05-09T16:30:29.816Z,4.43
2018-05-09T16:33:33.103Z,4.70
2018-05-09T16:36:36.304Z,4.95
2018-05-09T16:39:39.584Z,4.30
2018-05-09T16:42:42.794Z,4.68
2018-05-09T16:45:46.075Z,4.80
2018-05-09T16:48:49.283Z,5.10
2018-05-09T16:51:52.542Z,4.82
2018-05-09T16:54:55.814Z,6.03
2018-05-09T16:57:59.014Z,6.62
2018-05-09T17:01:02.304Z,14.65
2018-05-09T17:04:05.562Z,4.07
2018-05-09T17:07:08.877Z,3.80
2018-05-09T17:10:27.528Z,3.80
2018-05-09T17:13:46.541Z,3.90
2018-05-09T17:20:23.696Z,4.10
2018-05-09T17:23:28.027Z,5.00
2018-05-09T17:26:31.330Z,5.20
2018-05-09T17:29:34.552Z,5.80
2018-05-09T17:32:37.837Z,6.43
2018-05-09T17:35:41.048Z,7.10
2018-05-09T17:38:44.310Z,7.20
2018-05-09T17:42:11.582Z,7.27
2018-05-09T17:45:21.982Z,6.30
2018-05-09T17:48:37.022Z,6.87
2018-05-09T17:51:40.747Z,5.87
2018-05-09T17:54:44.036Z,6.97
2018-05-09T17:57:47.294Z,7.27
2018-05-09T18:00:50.527Z,7.03
2018-05-09T18:03:59.792Z,6.83
2018-05-09T18:07:07.400Z,6.07
2018-05-09T18:10:10.684Z,6.50
2018-05-09T18:13:14.018Z,5.80
2018-05-09T18:16:17.219Z,7.30
2018-05-09T18:19:20.486Z,8.27
2018-05-09T18:22:23.687Z,7.03
2018-05-09T18:25:27.077Z,7.00
2018-05-09T18:28:31.747Z,8.80
2018-05-09T18:31:35.039Z,8.37
2018-05-09T18:34:38.305Z,7.13
2018-05-09T18:37:41.501Z,6.67
2018-05-09T18:40:44.781Z,8.43
2018-05-09T18:43:47.991Z,7.07
2018-05-09T18:46:51.263Z,6.83
2018-05-09T18:49:54.534Z,6.90
2018-05-09T18:52:57.992Z,7.27
2018-05-09T18:56:01.263Z,8.10
2018-05-09T18:59:20.718Z,7.00
2018-05-09T19:02:40.253Z,7.10
2018-05-09T19:09:20.061Z,7.13
2018-05-09T19:12:41.935Z,6.10
2018-05-09T19:16:02.706Z,5.80
2018-05-09T19:19:20.637Z,6.10
2018-05-09T19:25:59.032Z,6.40
2018-05-09T19:32:43.251Z,6.10
2018-05-09T19:36:04.127Z,7.00
2018-05-09T19:39:26.761Z,6.37
2018-05-09T19:42:48.940Z,6.00
2018-05-09T19:46:10.078Z,6.67
2018-05-09T19:49:32.150Z,6.07
2018-05-09T19:52:55.946Z,5.60
2018-05-09T19:56:17.539Z,5.53
2018-05-09T19:59:39.948Z,6.17
2018-05-09T20:02:59.261Z,5.57
2018-05-09T20:06:11.295Z,6.17
2018-05-09T20:09:14.570Z,5.77
2018-05-09T20:12:17.812Z,6.70
2018-05-09T20:15:21.079Z,6.80
2018-05-09T20:18:24.346Z,7.10
2018-05-09T20:21:27.578Z,5.67
2018-05-09T20:24:30.854Z,5.77
2018-05-09T20:27:34.099Z,5.83
2018-05-09T20:30:42.754Z,5.67
2018-05-09T20:33:45.951Z,6.63
2018-05-09T20:36:49.223Z,6.43
2018-05-09T20:39:52.472Z,5.23
2018-05-09T20:42:55.682Z,5.87
2018-05-09T20:46:03.895Z,5.40
2018-05-09T20:49:19.874Z,6.17
2018-05-09T20:52:23.176Z,4.80
2018-05-09T20:55:29.910Z,5.50
2018-05-09T20:58:33.456Z,5.17
2018-05-09T21:01:48.405Z,5.73
2018-05-09T21:04:51.668Z,5.63
2018-05-09T21:07:57.854Z,7.27
2018-05-09T21:11:01.184Z,6.30
2018-05-09T21:14:04.433Z,6.13
2018-05-09T21:17:07.691Z,5.83
2018-05-09T21:20:10.953Z,5.90
2018-05-09T21:23:14.297Z,6.13
2018-05-09T21:26:17.501Z,6.60
2018-05-09T21:29:20.762Z,6.07
2018-05-09T21:32:23.964Z,7.27
2018-05-09T21:35:27.230Z,6.57
2018-05-09T21:38:31.118Z,6.93
2018-05-09T21:41:34.327Z,6.20
2018-05-09T21:44:37.590Z,6.37
2018-05-09T21:47:40.798Z,5.97
2018-05-09T21:50:44.079Z,6.93
2018-05-09T21:53:47.399Z,6.37
2018-05-09T21:56:50.596Z,7.20
2018-05-09T21:59:53.910Z,8.93
2018-05-09T22:02:57.109Z,7.00
2018-05-09T22:06:00.397Z,6.70
2018-05-09T22:09:03.681Z,5.93
2018-05-09T22:12:06.936Z,7.57
2018-05-09T22:15:10.220Z,6.60
2018-05-09T22:18:13.421Z,6.20
2018-05-09T22:21:16.705Z,7.17
2018-05-09T22:24:19.902Z,6.60
2018-05-09T22:27:23.183Z,6.67
2018-05-09T22:30:26.472Z,6.27
2018-05-09T22:33:29.729Z,6.97
2018-05-09T22:36:33.001Z,6.73
2018-05-09T22:39:36.207Z,7.03
2018-05-09T22:42:39.493Z,6.33
2018-05-09T22:45:42.693Z,6.30
2018-05-09T22:48:45.957Z,6.50
2018-05-09T22:51:49.240Z,5.97
2018-05-09T22:54:52.437Z,6.43
2018-05-09T22:57:55.699Z,6.53
2018-05-09T23:00:58.975Z,6.57
2018-05-09T23:04:02.250Z,6.53
2018-05-09T23:07:05.452Z,7.50
2018-05-09T23:10:08.798Z,6.47
2018-05-09T23:13:12.034Z,6.50
2018-05-09T23:16:15.235Z,6.07
2018-05-09T23:19:18.524Z,6.60
2018-05-09T23:22:21.729Z,6.80
2018-05-09T23:25:25.001Z,5.67
2018-05-09T23:28:28.286Z,5.77
2018-05-09T23:31:31.482Z,5.90
2018-05-09T23:34:34.758Z,7.03
2018-05-09T23:37:37.958Z,5.70
2018-05-09T23:40:41.300Z,6.43
2018-05-09T23:43:44.586Z,6.77
2018-05-09T23:46:47.787Z,6.30
2018-05-09T23:49:51.050Z,8.00
2018-05-09T23:52:55.421Z,6.17
2018-05-09T23:55:58.683Z,5.10
2018-05-09T23:59:01.876Z,5.63
